Time;durP1;ratioP1;P1;durP2;ratioP2;P2;SDS_P1;SDS_P2;PMS_P1;PMS_P2;Temp;Humidity;BMP_temperature;BMP_pressure;BME280_temperature;BME280_humidity;BME280_pressure;Samples;Min_cycle;Max_cycle;Signal;HPM_P1;HPM_P2
2022/05/29 00:01:55;;;;;;;8.35;3.25;;;;;;;16.48;74.07;94460.78;5134548;27;20573;-72
2022/05/29 00:04:21;;;;;;;8.82;3.42;;;;;;;16.48;74.58;94454.72;5134518;27;20120;-72
2022/05/29 00:06:48;;;;;;;7.93;3.67;;;;;;;16.47;74.58;94464.41;5135291;27;20042;-73
2022/05/29 00:09:18;;;;;;;10.45;4.15;;;;;;;16.50;74.45;94464.03;5100278;27;20027;-72
2022/05/29 00:11:43;;;;;;;10.20;4.25;;;;;;;16.49;74.98;94467.66;5100287;27;20035;-72
2022/05/29 00:14:09;;;;;;;10.50;4.20;;;;;;;16.45;75.63;94497.00;5135512;27;20412;-72
2022/05/29 00:16:34;;;;;;;8.43;4.40;;;;;;;16.50;75.59;94502.56;5135317;27;20396;-72
2022/05/29 00:18:59;;;;;;;8.10;3.92;;;;;;;16.49;75.54;94457.19;5133933;27;20042;-72
2022/05/29 00:21:25;;;;;;;8.30;4.25;;;;;;;16.40;75.43;94402.34;5134058;27;20027;-72
2022/05/29 00:23:50;;;;;;;11.98;5.22;;;;;;;16.44;76.51;94414.13;5134023;27;20035;-72
2022/05/29 00:26:19;;;;;;;11.25;4.82;;;;;;;16.40;76.64;94426.72;5135131;27;20023;-72
2022/05/29 00:28:45;;;;;;;12.18;5.53;;;;;;;16.31;76.45;94422.53;5134136;27;20027;-72
2022/05/29 00:31:11;;;;;;;10.30;4.78;;;;;;;16.33;76.64;94393.53;5134197;27;20019;-72
2022/05/29 00:33:36;;;;;;;8.93;5.35;;;;;;;16.28;76.83;94386.19;5134124;27;20061;-72
2022/05/29 00:36:02;;;;;;;7.82;4.88;;;;;;;16.33;76.91;94367.34;5133860;27;20435;-72
2022/05/29 00:38:27;;;;;;;8.18;5.43;;;;;;;16.37;76.64;94372.03;5116529;27;20058;-72
2022/05/29 00:41:25;;;;;;;10.43;6.32;;;;;;;16.44;76.65;94386.09;5116659;27;20033;-72
2022/05/29 00:44:19;;;;;;;9.80;6.45;;;;;;;16.40;76.94;94395.28;5128154;27;20051;-73
2022/05/29 00:46:45;;;;;;;10.75;7.35;;;;;;;16.38;77.23;94375.47;5117948;27;20023;-72
2022/05/29 00:49:11;;;;;;;10.57;6.32;;;;;;;16.40;76.81;94357.78;5133581;27;20031;-72
2022/05/29 00:51:39;;;;;;;9.23;4.97;;;;;;;16.38;75.99;94368.44;5115042;27;20440;-72
2022/05/29 00:54:04;;;;;;;7.10;4.70;;;;;;;16.31;75.60;94394.50;5116396;27;20484;-72
2022/05/29 00:56:30;;;;;;;11.52;4.38;;;;;;;16.16;75.65;94448.66;5116338;27;20030;-72
2022/05/29 00:58:57;;;;;;;9.00;4.25;;;;;;;16.25;75.35;94434.50;5116389;27;20401;-72
2022/05/29 01:01:23;;;;;;;11.98;4.50;;;;;;;15.94;76.65;94327.09;5116466;27;20401;-72
2022/05/29 01:03:48;;;;;;;7.22;3.75;;;;;;;15.88;76.07;94275.41;5133160;27;20054;-72
2022/05/29 01:06:14;;;;;;;7.85;3.95;;;;;;;16.01;76.00;94317.53;5116003;27;20458;-72
2022/05/29 01:08:39;;;;;;;9.32;4.78;;;;;;;16.06;76.11;94325.69;5115794;27;20027;-72
2022/05/29 01:11:28;;;;;;;7.70;4.18;;;;;;;15.97;75.99;94326.75;5133116;27;20023;-72
2022/05/29 01:14:02;;;;;;;8.95;4.00;;;;;;;16.06;75.87;94309.16;5117440;27;20468;-72
2022/05/29 01:16:39;;;;;;;7.07;4.40;;;;;;;16.05;75.50;94312.78;5134275;27;20417;-72
2022/05/29 01:19:10;;;;;;;8.40;4.05;;;;;;;16.02;75.28;94332.28;5133012;27;20400;-72
2022/05/29 01:21:41;;;;;;;7.63;3.75;;;;;;;15.92;75.36;94363.09;5133981;27;20449;-72
2022/05/29 01:24:28;;;;;;;6.85;3.65;;;;;;;15.90;75.18;94383.41;5134086;27;20046;-72
2022/05/29 01:27:31;;;;;;;6.60;3.35;;;;;;;15.83;75.34;94398.19;5134078;27;20092;-72
2022/05/29 01:30:13;;;;;;;9.38;4.07;;;;;;;15.84;74.92;94339.56;5134472;27;20027;-72
2022/05/29 01:32:50;;;;;;;11.75;4.18;;;;;;;15.73;74.98;94292.81;5134225;27;20102;-72
2022/05/29 01:35:32;;;;;;;6.70;3.78;;;;;;;15.74;74.79;94290.03;5116779;27;20027;-72
2022/05/29 01:38:02;;;;;;;11.73;3.67;;;;;;;15.73;74.62;94306.72;5134192;27;20545;-72
2022/05/29 01:40:41;;;;;;;7.30;3.60;;;;;;;15.65;74.81;94332.91;5133870;27;20019;-72
2022/05/29 01:43:26;;;;;;;7.85;3.47;;;;;;;15.62;75.01;94334.03;5132428;27;20412;-72
2022/05/29 01:46:02;;;;;;;7.03;3.72;;;;;;;15.52;75.08;94325.59;5133549;27;20106;-72
2022/05/29 01:49:02;;;;;;;10.88;4.28;;;;;;;15.51;75.52;94323.94;5115581;27;20039;-72
2022/05/29 01:51:47;;;;;;;9.32;3.92;;;;;;;15.47;75.47;94312.19;5108891;27;20058;-72
2022/05/29 01:54:32;;;;;;;10.48;3.97;;;;;;;15.39;75.58;94312.22;5132562;27;20400;-72
2022/05/29 01:57:24;;;;;;;9.32;3.85;;;;;;;15.42;75.40;94306.66;5133850;27;20038;-72
2022/05/29 02:00:20;;;;;;;8.10;3.83;;;;;;;15.37;75.33;94301.09;5133447;27;20027;-73
2022/05/29 02:02:48;;;;;;;6.30;3.03;;;;;;;15.43;74.60;94297.78;5129843;27;20047;-72
2022/05/29 02:05:16;;;;;;;10.35;3.70;;;;;;;15.44;74.77;94296.03;5132016;27;20108;-73
2022/05/29 02:07:49;;;;;;;13.48;3.60;;;;;;;15.44;74.67;94298.63;5133461;27;20110;-72
2022/05/29 02:10:26;;;;;;;7.70;3.30;;;;;;;15.34;75.22;94304.06;5132185;27;20102;-72
2022/05/29 02:13:08;;;;;;;10.00;3.13;;;;;;;15.32;74.60;94292.94;5133658;27;20082;-72
2022/05/29 02:15:44;;;;;;;7.40;3.28;;;;;;;15.36;74.88;94302.09;5133301;27;20047;-72
2022/05/29 02:18:16;;;;;;;11.43;3.80;;;;;;;15.30;75.25;94298.34;5131938;27;20035;-72
2022/05/29 02:20:43;;;;;;;6.20;3.65;;;;;;;15.32;75.28;94290.31;5115155;27;20039;-72
2022/05/29 02:23:18;;;;;;;7.97;3.60;;;;;;;15.26;75.49;94293.59;5131775;27;20095;-72
2022/05/29 02:25:43;;;;;;;6.63;3.20;;;;;;;15.25;75.03;94282.34;5131527;27;20027;-72
2022/05/29 02:28:12;;;;;;;7.20;3.15;;;;;;;15.34;74.60;94288.34;5097637;27;20041;-72
2022/05/29 02:31:28;;;;;;;9.35;3.20;;;;;;;15.34;74.42;94280.50;5131748;27;20038;-72
2022/05/29 02:34:00;;;;;;;9.88;3.35;;;;;;;15.34;74.42;94283.13;5114478;27;20096;-72
2022/05/29 02:36:50;;;;;;;5.15;2.97;;;;;;;15.36;74.69;94276.72;5131596;27;20027;-72
2022/05/29 02:39:24;;;;;;;6.90;3.78;;;;;;;15.38;74.48;94263.50;5132666;27;20058;-72
2022/05/29 02:42:24;;;;;;;7.38;3.58;;;;;;;15.40;74.19;94256.25;5132671;27;20283;-72
2022/05/29 02:45:10;;;;;;;7.85;2.97;;;;;;;15.34;74.12;94256.94;5132529;27;20062;-72
2022/05/29 02:47:56;;;;;;;8.25;3.50;;;;;;;15.24;74.46;94249.31;5132846;27;20035;-72
2022/05/29 02:50:37;;;;;;;6.78;3.20;;;;;;;15.18;74.76;94232.50;5114235;27;20031;-72
2022/05/29 02:53:08;;;;;;;6.07;3.42;;;;;;;15.03;75.38;94241.19;5132803;27;20469;-72
2022/05/29 02:55:33;;;;;;;;;;;;;;;15.01;75.25;94235.31;5114793;27;20027;-72
2022/05/29 02:58:01;;;;;;;8.50;3.80;;;;;;;14.88;75.74;94235.84;5113816;27;19925;-72
2022/05/29 03:00:30;;;;;;;8.25;3.75;;;;;;;14.81;75.76;94213.97;5113872;27;20326;-72
2022/05/29 03:03:20;;;;;;;11.07;4.10;;;;;;;14.82;75.86;94221.66;5114442;27;20108;-72
2022/05/29 03:05:50;;;;;;;11.18;3.53;;;;;;;14.76;76.24;94217.06;5130984;27;20027;-72
2022/05/29 03:08:22;;;;;;;7.30;3.63;;;;;;;14.81;76.18;94219.19;5131237;27;20043;-72
2022/05/29 03:10:53;;;;;;;6.03;3.50;;;;;;;14.83;76.11;94212.00;5130960;27;20034;-72
2022/05/29 03:13:27;;;;;;;7.95;4.70;;;;;;;14.86;76.15;94216.91;5130606;27;20051;-72
2022/05/29 03:16:51;;;;;;;5.90;3.58;;;;;;;14.86;76.04;94216.91;5130867;27;20173;-72
2022/05/29 03:19:26;;;;;;;6.82;3.92;;;;;;;14.96;75.44;94202.66;5059046;28;20135;-72
2022/05/29 03:22:13;;;;;;;6.57;3.70;;;;;;;15.00;75.49;94203.13;5068620;28;20032;-72
2022/05/29 03:24:43;;;;;;;7.97;3.58;;;;;;;15.05;75.14;94197.38;5104378;28;20073;-72
2022/05/29 03:27:14;;;;;;;9.10;3.65;;;;;;;15.01;75.41;94194.28;5132135;27;20293;-72
2022/05/29 03:29:47;;;;;;;7.32;4.07;;;;;;;15.01;75.54;94203.94;5130553;27;20393;-72
2022/05/29 03:32:13;;;;;;;6.97;3.70;;;;;;;15.09;75.26;94199.47;5114253;28;20035;-72
2022/05/29 03:34:38;;;;;;;5.28;3.58;;;;;;;15.18;75.09;94202.88;5096733;28;20046;-72
2022/05/29 03:37:03;;;;;;;5.57;3.63;;;;;;;15.20;74.87;94199.09;5130741;27;20035;-72
2022/05/29 03:39:29;;;;;;;5.75;3.80;;;;;;;15.26;74.87;94207.25;5130708;28;20027;-72
2022/05/29 03:41:54;;;;;;;5.88;3.80;;;;;;;15.29;74.73;94197.25;5132022;27;20445;-72
2022/05/29 03:44:21;;;;;;;7.45;3.47;;;;;;;15.28;74.86;94189.59;5130814;28;20027;-73
2022/05/29 03:46:47;;;;;;;7.00;3.80;;;;;;;15.27;75.08;94198.44;5130598;28;20031;-72
2022/05/29 03:49:14;;;;;;;7.20;3.80;;;;;;;15.26;75.22;94202.84;5113464;28;20083;-72
2022/05/29 03:51:39;;;;;;;6.70;4.40;;;;;;;15.30;75.21;94200.72;5130658;28;20031;-71
2022/05/29 03:54:05;;;;;;;8.77;3.88;;;;;;;15.38;74.86;94205.91;5131793;27;20136;-72
2022/05/29 03:56:31;;;;;;;9.80;4.10;;;;;;;15.44;74.54;94193.94;5130679;28;20092;-72
2022/05/29 03:58:56;;;;;;;6.30;3.70;;;;;;;15.44;74.06;94181.69;5130483;28;20035;-72
2022/05/29 04:01:22;;;;;;;8.05;4.05;;;;;;;15.61;73.85;94192.88;5130629;28;20023;-72
2022/05/29 04:03:47;;;;;;;8.73;3.70;;;;;;;15.85;72.97;94192.75;5130469;28;20477;-72
2022/05/29 04:06:13;;;;;;;4.45;3.53;;;;;;;16.20;72.33;94182.66;5130384;28;20024;-72
2022/05/29 04:14:06;;;;;;;6.15;3.33;;;;;;;17.23;67.95;94181.13;5130561;28;20058;-72
2022/05/29 04:16:32;;;;;;;6.72;3.08;;;;;;;17.59;66.76;94172.47;5130495;28;20035;-72
2022/05/29 04:18:58;;;;;;;7.97;3.50;;;;;;;17.45;67.09;94175.94;5130401;28;20027;-72
2022/05/29 04:21:23;;;;;;;4.82;3.30;;;;;;;17.46;66.85;94181.00;5113279;28;20408;-72
2022/05/29 04:23:49;;;;;;;9.20;3.03;;;;;;;17.50;66.62;94181.47;5130224;28;20111;-72
2022/05/29 04:26:15;;;;;;;6.15;3.30;;;;;;;17.53;66.22;94175.84;5134790;27;20031;-72
2022/05/29 04:28:41;;;;;;;6.57;3.30;;;;;;;17.86;65.12;94176.22;5117011;27;20031;-72
2022/05/29 04:31:06;;;;;;;6.22;3.13;;;;;;;17.79;64.80;94172.72;5135149;27;20027;-73
2022/05/29 04:33:32;;;;;;;6.63;3.00;;;;;;;17.45;66.59;94182.00;5134082;27;20115;-72
2022/05/29 04:35:57;;;;;;;8.23;3.53;;;;;;;17.43;67.23;94194.50;5134128;27;20489;-72
2022/05/29 04:38:23;;;;;;;5.15;3.30;;;;;;;17.89;65.69;94190.81;5116953;27;20039;-72
2022/05/29 04:40:49;;;;;;;7.93;3.58;;;;;;;17.93;65.13;94195.47;5116718;27;20057;-72
2022/05/29 04:43:14;;;;;;;5.28;3.70;;;;;;;17.63;66.33;94208.69;5099854;27;20050;-72
2022/05/29 04:45:41;;;;;;;5.95;3.63;;;;;;;18.97;62.38;94205.44;5133847;27;20397;-73
2022/05/29 04:48:07;;;;;;;7.45;3.65;;;;;;;18.70;62.46;94205.25;5133927;27;20437;-72
2022/05/29 04:50:32;;;;;;;7.20;3.38;;;;;;;18.44;63.43;94203.25;5133618;27;20027;-72
2022/05/29 04:52:58;;;;;;;5.05;3.00;;;;;;;18.23;63.69;94187.47;5116552;27;20086;-72
2022/05/29 04:55:23;;;;;;;8.05;3.00;;;;;;;18.41;62.91;94189.63;5135056;27;20028;-72
2022/05/29 04:57:49;;;;;;;7.75;3.15;;;;;;;18.49;62.76;94192.13;5116655;27;20497;-72
2022/05/29 05:00:15;;;;;;;8.55;3.03;;;;;;;18.62;62.19;94194.88;5099281;27;20019;-72
2022/05/29 05:02:41;;;;;;;4.72;2.60;;;;;;;18.85;62.08;94196.47;5116244;27;20100;-72
2022/05/29 05:05:06;;;;;;;8.23;3.25;;;;;;;18.98;60.59;94193.94;5133416;27;20028;-73
2022/05/29 05:07:32;;;;;;;8.00;2.85;;;;;;;18.90;62.75;94192.25;5116346;27;20035;-72
2022/05/29 05:09:58;;;;;;;5.03;3.00;;;;;;;18.95;63.08;94192.50;5133313;27;20027;-73
2022/05/29 05:12:23;;;;;;;7.90;3.03;;;;;;;18.99;62.71;94203.44;5116269;27;20035;-72
2022/05/29 05:14:49;;;;;;;7.32;3.00;;;;;;;18.83;62.90;94191.38;5133370;27;20023;-72
2022/05/29 05:17:14;;;;;;;5.95;2.58;;;;;;;18.84;62.52;94189.59;5116182;27;20038;-72
2022/05/29 05:19:39;;;;;;;6.82;2.80;;;;;;;18.75;62.19;94192.38;5133134;27;20030;-72
2022/05/29 05:22:08;;;;;;;5.97;2.70;;;;;;;18.74;62.33;94185.47;5116068;27;20398;-72
2022/05/29 05:24:34;;;;;;;6.38;2.70;;;;;;;18.65;62.35;94176.06;5134319;27;20061;-72
2022/05/29 05:27:00;;;;;;;8.40;2.90;;;;;;;18.68;67.79;94186.22;5116006;27;20043;-72
2022/05/29 05:29:25;;;;;;;8.13;2.83;;;;;;;18.63;67.43;94177.25;5132931;27;20027;-72
2022/05/29 05:31:51;;;;;;;6.68;2.95;;;;;;;18.61;68.93;94180.09;5133036;27;20083;-72
2022/05/29 05:34:16;;;;;;;6.80;3.05;;;;;;;18.78;68.04;94179.81;5115914;27;20023;-72
2022/05/29 05:36:42;;;;;;;7.72;2.90;;;;;;;18.69;67.92;94185.22;5114966;27;20035;-72
2022/05/29 05:39:07;;;;;;;7.78;2.85;;;;;;;18.64;64.42;94169.19;5133884;27;20415;-72
2022/05/29 05:41:33;;;;;;;7.55;3.00;;;;;;;18.66;65.33;94169.78;5132758;27;20066;-72
2022/05/29 05:43:59;;;;;;;5.50;2.63;;;;;;;18.62;64.80;94171.19;5132702;27;20031;-72
2022/05/29 05:46:24;;;;;;;6.78;2.78;;;;;;;18.58;64.72;94177.84;5115549;27;20023;-72
2022/05/29 05:48:50;;;;;;;4.75;3.35;;;;;;;18.62;63.91;94176.47;5132403;27;20413;-72
2022/05/29 05:51:16;;;;;;;5.20;2.33;;;;;;;18.77;63.96;94178.19;5133807;27;20030;-72
2022/05/29 05:53:41;;;;;;;7.25;2.90;;;;;;;18.74;62.68;94167.06;5132436;27;20027;-72
2022/05/29 05:56:11;;;;;;;9.88;3.03;;;;;;;18.80;61.82;94173.34;5115399;27;20023;-72
2022/05/29 05:58:38;;;;;;;8.43;2.90;;;;;;;18.95;61.57;94175.91;5115167;27;20050;-72
2022/05/29 06:01:05;;;;;;;5.88;2.63;;;;;;;19.04;61.27;94172.09;5132294;27;20485;-72
2022/05/29 06:03:30;;;;;;;8.57;2.95;;;;;;;19.21;62.06;94175.22;5098072;27;20093;-72
2022/05/29 06:05:56;;;;;;;6.88;2.95;;;;;;;19.37;61.73;94168.81;5098001;27;20473;-72
2022/05/29 06:08:21;;;;;;;4.82;2.40;;;;;;;19.56;62.47;94178.63;5132982;27;20043;-72
2022/05/29 06:10:47;;;;;;;4.93;2.95;;;;;;;19.71;60.64;94175.84;5132330;27;20087;-72
2022/05/29 06:13:12;;;;;;;5.43;2.35;;;;;;;19.81;59.62;94181.56;5133643;27;20031;-72
2022/05/29 06:15:38;;;;;;;8.77;2.58;;;;;;;19.78;59.56;94149.50;5133244;27;20031;-72
2022/05/29 06:18:04;;;;;;;7.00;3.15;;;;;;;19.60;60.95;94169.28;5097953;27;20042;-72
2022/05/29 06:20:30;;;;;;;7.38;2.50;;;;;;;19.53;61.94;94189.53;5131949;27;20409;-73
2022/05/29 06:22:55;;;;;;;6.95;2.85;;;;;;;19.70;61.29;94176.06;5131829;27;20039;-72
2022/05/29 06:25:21;;;;;;;8.65;2.60;;;;;;;19.78;61.26;94158.25;5131801;27;20462;-72
2022/05/29 06:27:47;;;;;;;7.18;2.72;;;;;;;19.86;60.06;94136.13;5133006;27;20039;-72
2022/05/29 06:30:13;;;;;;;4.35;2.55;;;;;;;19.90;59.79;94134.75;5131908;27;20548;-72
2022/05/29 06:32:39;;;;;;;7.60;2.97;;;;;;;20.12;59.92;94147.75;5114636;27;20080;-72
2022/05/29 06:35:06;;;;;;;6.85;2.95;;;;;;;20.26;60.75;94147.53;5114609;27;20405;-72
2022/05/29 06:37:32;;;;;;;9.82;2.80;;;;;;;20.48;59.02;94136.81;5131204;27;20043;-72
2022/05/29 06:39:58;;;;;;;7.72;2.70;;;;;;;20.75;59.92;94134.94;5114407;27;20080;-72
2022/05/29 06:42:24;;;;;;;6.75;2.30;;;;;;;21.03;57.39;94142.59;5114509;27;20030;-73
2022/05/29 06:44:49;;;;;;;5.85;2.20;;;;;;;21.25;54.33;94137.84;5131560;27;20019;-72
2022/05/29 06:47:15;;;;;;;7.53;2.00;;;;;;;21.47;53.04;94142.88;5132656;27;20046;-72
2022/05/29 06:49:41;;;;;;;7.38;2.00;;;;;;;21.67;51.33;94151.53;5131742;27;20030;-74
2022/05/29 06:52:07;;;;;;;7.25;1.95;;;;;;;21.77;51.13;94138.66;5097406;27;20054;-73
2022/05/29 06:54:33;;;;;;;6.38;2.33;;;;;;;21.92;50.74;94126.97;5114256;27;20256;-73
2022/05/29 06:56:59;;;;;;;6.78;2.05;;;;;;;22.02;51.36;94119.41;5114023;27;20080;-73
2022/05/29 06:59:24;;;;;;;9.30;2.47;;;;;;;21.90;50.00;94142.25;5131412;27;20484;-73
2022/05/29 07:07:18;;;;;;;5.55;1.83;;;;;;;22.08;49.48;94124.63;5131386;27;20443;-73
2022/05/29 07:09:43;;;;;;;6.50;1.80;;;;;;;22.12;49.53;94129.50;5131306;27;20027;-74
2022/05/29 07:12:30;;;;;;;4.50;1.80;;;;;;;22.21;49.47;94133.53;5132054;27;20097;-72
2022/05/29 07:15:06;;;;;;;8.30;2.10;;;;;;;22.42;50.44;94124.41;5114399;28;20105;-73
2022/05/29 07:17:31;;;;;;;8.73;1.90;;;;;;;22.59;50.22;94125.47;5114550;27;20119;-73
2022/05/29 07:19:57;;;;;;;5.45;1.90;;;;;;;22.54;48.72;94133.28;5114247;28;20031;-73
2022/05/29 07:22:22;;;;;;;7.47;1.85;;;;;;;22.56;48.90;94117.97;5131229;27;20035;-73
2022/05/29 07:24:48;;;;;;;10.15;2.20;;;;;;;22.61;50.61;94123.41;5132093;27;20019;-73
2022/05/29 07:27:13;;;;;;;11.23;2.33;;;;;;;22.53;51.73;94119.22;5113933;28;20059;-73
2022/05/29 07:29:39;;;;;;;5.90;2.22;;;;;;;22.63;50.75;94120.56;5131160;28;20027;-73
2022/05/29 07:32:05;;;;;;;6.65;1.98;;;;;;;22.72;50.48;94125.34;5130923;27;20031;-73
2022/05/29 07:34:30;;;;;;;4.85;2.00;;;;;;;22.47;50.90;94116.63;5130821;28;20026;-73
2022/05/29 07:37:03;;;;;;;8.50;2.20;;;;;;;22.73;50.26;94127.00;5130956;28;20020;-73
2022/05/29 07:39:29;;;;;;;5.35;1.70;;;;;;;22.81;52.48;94119.78;5131008;28;20027;-73
2022/05/29 07:44:38;;;;;;;6.68;2.15;;;;;;;22.93;51.80;94120.69;5116467;28;20046;-73
2022/05/29 07:47:04;;;;;;;5.80;1.92;;;;;;;22.74;50.99;94128.59;5131687;27;20039;-73
2022/05/29 07:49:29;;;;;;;7.55;2.15;;;;;;;22.67;49.84;94114.59;5130841;28;20054;-73
2022/05/29 07:51:55;;;;;;;7.35;2.58;;;;;;;22.78;49.48;94107.78;5132059;27;20481;-73
2022/05/29 07:54:22;;;;;;;8.30;2.00;;;;;;;22.94;50.79;94101.09;5130738;28;20035;-73
2022/05/29 07:56:47;;;;;;;8.85;2.20;;;;;;;23.07;49.40;94090.41;5131494;27;20039;-73
2022/05/29 07:59:16;;;;;;;6.05;1.67;;;;;;;23.16;48.36;94093.56;5130753;27;20473;-73
2022/05/29 08:01:41;;;;;;;6.55;2.20;;;;;;;22.99;49.78;94080.09;5134425;27;20031;-73
2022/05/29 08:04:07;;;;;;;6.68;1.90;;;;;;;23.34;49.02;94087.41;5117197;27;20050;-73
2022/05/29 08:06:32;;;;;;;6.57;1.98;;;;;;;23.50;48.32;94078.84;5134079;27;20035;-73
2022/05/29 08:08:58;;;;;;;7.15;1.88;;;;;;;23.71;49.28;94071.47;5134171;27;20027;-73
2022/05/29 08:11:23;;;;;;;5.90;1.98;;;;;;;23.92;47.86;94081.56;5134035;27;20034;-73
2022/05/29 08:13:49;;;;;;;9.40;1.95;;;;;;;24.05;46.47;94075.25;5134068;27;20148;-73
2022/05/29 08:16:16;;;;;;;9.40;2.10;;;;;;;24.20;47.41;94078.25;5116931;27;20051;-73
2022/05/29 08:18:42;;;;;;;8.07;2.10;;;;;;;24.33;46.56;94074.59;5134026;27;20405;-73
2022/05/29 08:21:08;;;;;;;6.75;2.20;;;;;;;24.54;46.09;94070.56;5116860;27;20027;-74
2022/05/29 08:23:35;;;;;;;9.65;2.22;;;;;;;24.62;45.45;94048.19;5133973;27;20039;-73
2022/05/29 08:31:28;;;;;;;9.23;2.10;;;;;;;24.86;44.24;94064.91;5133972;27;20030;-73
2022/05/29 08:33:54;;;;;;;7.50;1.90;;;;;;;24.85;44.58;94055.31;5134895;27;20428;-73
2022/05/29 08:36:24;;;;;;;7.65;2.00;;;;;;;24.98;45.53;94052.41;5116557;27;20027;-73
2022/05/29 08:38:52;;;;;;;7.15;2.20;;;;;;;25.03;44.71;94049.84;5116984;27;20054;-73
2022/05/29 08:41:40;;;;;;;8.15;2.25;;;;;;;25.26;46.13;94056.19;5134735;27;20038;-73
2022/05/29 08:44:05;;;;;;;7.03;1.75;;;;;;;25.23;43.17;94057.44;5134740;27;20024;-73
2022/05/29 08:46:52;;;;;;;12.13;2.28;;;;;;;25.38;43.92;94048.97;5134615;27;20122;-73
2022/05/29 08:49:19;;;;;;;6.45;1.92;;;;;;;25.36;41.94;94038.56;5117663;27;20106;-73
2022/05/29 08:52:21;;;;;;;7.00;1.80;;;;;;;25.57;42.71;94049.56;5116360;27;20035;-73
2022/05/29 08:54:56;;;;;;;8.45;2.25;;;;;;;25.59;40.50;94042.19;5133275;27;20035;-74
2022/05/29 08:57:44;;;;;;;8.88;2.67;;;;;;;25.56;42.69;94037.34;5133329;27;20032;-73
2022/05/29 09:00:14;;;;;;;8.63;2.08;;;;;;;25.64;42.55;94044.94;5134489;27;20416;-74
2022/05/29 09:02:49;;;;;;;;;;;;;;;25.73;41.38;94040.03;5133617;27;20051;-73
2022/05/29 09:05:29;;;;;;;9.68;2.15;;;;;;;25.61;41.84;94034.78;5134963;27;19912;-74
2022/05/29 09:07:56;;;;;;;11.60;2.10;;;;;;;25.56;40.79;94040.00;5134608;27;20039;-73
2022/05/29 09:10:33;;;;;;;5.05;1.90;;;;;;;25.66;42.44;94021.56;5116022;27;20030;-73
2022/05/29 09:12:58;;;;;;;7.60;2.25;;;;;;;25.59;42.34;94032.34;5132272;27;20035;-73
2022/05/29 09:15:40;;;;;;;11.68;2.22;;;;;;;25.50;41.18;94032.97;5115852;27;20100;-73
2022/05/29 09:18:13;;;;;;;6.47;1.95;;;;;;;25.46;41.14;94023.84;5116468;27;20110;-74
2022/05/29 09:20:46;;;;;;;10.98;3.08;;;;;;;25.50;40.79;94017.84;5116461;27;20034;-73
2022/05/29 09:23:15;;;;;;;7.95;2.17;;;;;;;25.52;43.17;94022.91;5132940;27;20118;-73
2022/05/29 09:25:42;;;;;;;9.00;2.17;;;;;;;25.52;42.26;94005.13;5115757;27;20054;-73
2022/05/29 09:28:24;;;;;;;6.90;2.17;;;;;;;25.55;41.98;94014.47;5115901;27;20123;-74
2022/05/29 09:30:49;;;;;;;7.13;2.35;;;;;;;25.50;41.90;94003.75;5116266;27;20023;-73
2022/05/29 09:33:28;;;;;;;8.25;2.38;;;;;;;25.61;44.11;94006.34;5115633;27;20545;-73
2022/05/29 09:36:22;;;;;;;8.38;2.45;;;;;;;25.70;43.72;94014.72;5132625;27;20019;-73
2022/05/29 09:38:54;;;;;;;8.45;2.10;;;;;;;25.44;42.65;93997.53;5132421;27;20075;-73
2022/05/29 09:41:31;;;;;;;7.95;2.60;;;;;;;25.40;43.76;94002.50;5132417;27;20031;-73
2022/05/29 09:44:07;;;;;;;6.90;2.63;;;;;;;25.57;42.84;93999.06;5116890;27;20495;-73
2022/05/29 09:46:34;;;;;;;11.00;2.78;;;;;;;25.56;41.30;93989.47;5132244;27;20035;-73
2022/05/29 09:51:54;;;;;;;10.25;2.58;;;;;;;25.51;43.21;93981.41;5132376;27;20038;-73
2022/05/29 09:54:37;;;;;;;12.65;2.40;;;;;;;25.56;43.75;93973.53;5133422;27;20028;-73
2022/05/29 09:57:11;;;;;;;8.90;2.45;;;;;;;25.68;43.26;93968.94;5115237;27;20031;-73
2022/05/29 09:59:43;;;;;;;6.75;2.67;;;;;;;25.77;41.44;93970.19;5115088;27;20488;-73
2022/05/29 10:02:16;;;;;;;6.43;2.15;;;;;;;25.79;41.32;93961.94;5114833;27;20027;-74
2022/05/29 10:04:42;;;;;;;11.88;3.00;;;;;;;25.65;41.67;93961.44;5115615;27;20067;-73
2022/05/29 10:07:30;;;;;;;7.80;2.83;;;;;;;25.65;41.43;93961.44;5131843;27;20043;-73
2022/05/29 10:10:00;;;;;;;14.95;4.10;;;;;;;25.74;42.49;93957.38;5131859;27;20103;-73
2022/05/29 10:12:45;;;;;;;14.38;3.13;;;;;;;25.69;42.69;93959.94;5133133;27;20122;-73
2022/05/29 10:15:34;;;;;;;8.80;3.00;;;;;;;25.63;41.24;93956.38;5115884;27;20084;-73
2022/05/29 10:18:03;;;;;;;8.40;2.65;;;;;;;25.71;41.35;93941.84;5115058;27;20041;-73
2022/05/29 10:20:37;;;;;;;11.75;3.35;;;;;;;25.79;42.51;93956.63;5131683;27;20049;-73
2022/05/29 10:23:07;;;;;;;8.45;2.47;;;;;;;25.78;41.29;93950.50;5131465;27;20037;-73
2022/05/29 10:25:34;;;;;;;13.18;2.65;;;;;;;25.66;42.28;93957.75;5131447;27;20088;-73
2022/05/29 10:28:15;;;;;;;7.88;2.40;;;;;;;25.52;44.00;93983.00;5114646;27;20038;-73
2022/05/29 10:30:58;;;;;;;8.93;2.42;;;;;;;25.53;43.23;93958.06;5115903;27;20026;-74
2022/05/29 10:33:25;;;;;;;6.18;2.40;;;;;;;25.59;43.53;93957.91;5131619;27;20035;-73
2022/05/29 10:35:58;;;;;;;11.80;2.70;;;;;;;25.64;43.21;93954.53;5114407;27;20114;-73
2022/05/29 10:38:26;;;;;;;9.57;3.05;;;;;;;25.61;44.18;93950.50;5115349;27;20034;-74
2022/05/29 10:40:57;;;;;;;6.22;2.70;;;;;;;25.70;44.95;93937.59;5114288;27;20035;-73
2022/05/29 10:43:34;;;;;;;;;;;;;;;25.87;44.19;93944.81;5131928;27;20084;-73
2022/05/29 10:46:24;;;;;;;10.50;3.10;;;;;;;26.02;44.78;93953.00;5132403;27;20449;-73
2022/05/29 10:48:59;;;;;;;13.07;2.90;;;;;;;26.11;43.15;93940.91;5123383;27;20504;-73
2022/05/29 10:51:44;;;;;;;11.15;3.67;;;;;;;26.19;44.05;93937.03;5131065;27;20192;-73
2022/05/29 10:54:17;;;;;;;7.18;2.90;;;;;;;26.12;43.04;93952.38;5131113;27;20087;-74
2022/05/29 10:57:07;;;;;;;11.30;3.30;;;;;;;26.14;43.59;93935.09;5131016;27;20415;-74
2022/05/29 10:59:41;;;;;;;8.20;3.17;;;;;;;26.18;43.18;93944.19;5132224;27;20023;-74
2022/05/29 11:05:35;;;;;;;8.48;2.78;;;;;;;26.11;42.26;93943.59;5117549;27;20027;-74
2022/05/29 11:08:35;;;;;;;10.63;2.78;;;;;;;25.43;42.93;93932.09;5132367;27;20035;-74
2022/05/29 11:11:09;;;;;;;14.77;3.23;;;;;;;25.59;43.87;93930.50;5132066;27;20028;-74
2022/05/29 11:13:50;;;;;;;9.30;2.97;;;;;;;25.78;43.16;93915.94;5132445;27;20033;-74
2022/05/29 11:16:29;;;;;;;11.00;3.17;;;;;;;25.76;44.07;93904.72;5131875;27;20043;-73
2022/05/29 11:19:04;;;;;;;9.18;3.00;;;;;;;25.92;44.10;93919.09;5131892;27;20034;-74
2022/05/29 11:21:45;;;;;;;8.43;3.20;;;;;;;25.91;42.90;93911.34;5131914;27;20469;-74
2022/05/29 11:24:13;;;;;;;9.48;2.92;;;;;;;25.95;43.73;93901.84;5114916;27;20080;-73
2022/05/29 11:26:42;;;;;;;6.63;2.45;;;;;;;26.05;43.63;93902.00;5131727;27;20064;-74
2022/05/29 11:29:08;;;;;;;6.22;3.03;;;;;;;26.02;42.56;93892.63;5130643;28;20024;-74
2022/05/29 11:31:40;;;;;;;10.63;3.20;;;;;;;26.10;43.03;93896.72;5130472;27;20041;-73
2022/05/29 11:34:17;;;;;;;11.88;3.47;;;;;;;26.12;43.88;93881.31;5113816;28;20028;-74
2022/05/29 11:37:18;;;;;;;8.73;3.30;;;;;;;26.15;43.69;93872.03;5118681;27;20069;-74
2022/05/29 11:40:07;;;;;;;8.32;3.42;;;;;;;26.05;44.38;93864.75;5109606;27;20039;-73
2022/05/29 11:42:40;;;;;;;8.05;3.20;;;;;;;26.08;44.67;93858.94;5102323;27;20039;-74
2022/05/29 11:45:22;;;;;;;9.68;3.55;;;;;;;25.81;43.94;93864.91;5118297;27;20110;-74
2022/05/29 11:51:08;;;;;;;9.80;3.38;;;;;;;25.02;46.64;93853.50;5120488;27;20424;-74
2022/05/29 11:53:44;;;;;;;9.35;3.67;;;;;;;25.13;46.82;93836.69;5120215;27;20062;-74
2022/05/29 11:56:38;;;;;;;10.35;3.58;;;;;;;25.32;46.95;93838.09;5134491;27;20021;-73
2022/05/29 11:59:17;;;;;;;9.52;4.45;;;;;;;25.33;45.70;93837.06;5117166;27;20039;-74
2022/05/29 12:01:45;;;;;;;9.48;4.32;;;;;;;25.41;45.57;93826.03;5135568;27;20059;-73
2022/05/29 12:04:16;;;;;;;11.60;4.55;;;;;;;25.43;46.15;93825.78;5117477;27;20070;-73
2022/05/29 12:06:45;;;;;;;11.35;4.22;;;;;;;25.59;46.38;93832.13;5117530;27;20031;-74
2022/05/29 12:09:27;;;;;;;14.57;4.50;;;;;;;25.57;45.24;93820.94;5134228;27;20027;-74
2022/05/29 12:12:00;;;;;;;11.05;4.53;;;;;;;25.55;45.85;93817.72;5134149;27;20039;-74
2022/05/29 12:14:36;;;;;;;11.45;5.15;;;;;;;25.59;46.51;93808.22;5134200;27;20020;-74
2022/05/29 12:17:15;;;;;;;9.70;5.50;;;;;;;25.59;47.04;93808.22;5117626;27;20035;-74
2022/05/29 12:19:44;;;;;;;10.80;5.10;;;;;;;25.59;47.26;93808.22;5117045;27;20031;-74
2022/05/29 12:22:10;;;;;;;9.45;5.00;;;;;;;25.35;46.78;93812.88;5117132;27;20521;-73